Eastend, Virginia
Current Conditions -  °F | °C
As of 8:54 AM on Monday 20 Oct 2014 (Local Time) from KRIC Reporting Station
Broken Clouds Broken Clouds  
Wind Chill: 47°   Ceiling: 30000
Heat Index: 49°   Visibility: 10mi
Dew Point: 42°   Wind: 5mph
Humidity: 77%   Direction: 180°S
Pressure: 30.16"   Gusts: NA
Location:  37.556°N, 77.3779°W
Report Text: KRIC 201254Z 18004KT 10SM FEW250 BKN300 09/06 A3016 RMK AO2 SLP217 T00940056
Loading
Personal Weather Stations






























Interactive Weather Map
Tropical Storm Tracking
New forecast layout! Learn more

10-Day Weather Forecast

Advertisements
Track Severe Weather on mobile